createdAt,value
2019-04-21T00:00:35.679Z,9.30
2019-04-21T00:03:10.024Z,7.03
2019-04-21T00:05:57.140Z,7.60
2019-04-21T00:08:35.337Z,8.50
2019-04-21T00:11:06.233Z,8.77
2019-04-21T00:13:27.977Z,7.53
2019-04-21T00:15:52.057Z,7.10
2019-04-21T00:18:49.874Z,7.57
2019-04-21T00:21:22.275Z,6.80
2019-04-21T00:24:00.361Z,7.07
2019-04-21T00:26:33.274Z,7.50
2019-04-21T00:29:09.577Z,7.03
2019-04-21T00:31:35.304Z,8.40
2019-04-21T00:33:51.958Z,8.97
2019-04-21T00:36:29.254Z,7.53
2019-04-21T00:39:20.698Z,7.47
2019-04-21T00:41:50.888Z,6.97
2019-04-21T00:44:13.143Z,6.83
2019-04-21T00:46:44.912Z,7.80
2019-04-21T00:49:18.151Z,7.20
2019-04-21T00:52:25.119Z,6.93
2019-04-21T00:54:49.819Z,6.80
2019-04-21T00:57:18.099Z,8.10
2019-04-21T00:59:57.056Z,7.50
2019-04-21T01:02:20.215Z,8.30
2019-04-21T01:05:02.014Z,7.50
2019-04-21T01:07:20.764Z,7.37
2019-04-21T01:09:48.807Z,8.97
2019-04-21T01:12:29.811Z,7.57
2019-04-21T01:15:04.915Z,9.43
2019-04-21T01:17:30.843Z,8.50
2019-04-21T01:20:00.080Z,7.30
2019-04-21T01:22:13.388Z,8.37
2019-04-21T01:24:47.256Z,9.10
2019-04-21T01:27:25.070Z,8.10
2019-04-21T01:30:14.322Z,8.10
2019-04-21T01:32:42.603Z,8.20
2019-04-21T01:35:10.173Z,8.40
2019-04-21T01:37:43.816Z,8.53
2019-04-21T01:40:22.631Z,7.20
2019-04-21T01:42:45.835Z,6.87
2019-04-21T01:45:20.042Z,8.73
2019-04-21T01:47:49.040Z,9.63
2019-04-21T01:50:20.072Z,9.10
2019-04-21T01:52:57.639Z,9.33
2019-04-21T01:55:54.139Z,8.00
2019-04-21T01:58:18.250Z,10.67
2019-04-21T02:01:03.573Z,8.80
2019-04-21T02:08:41.843Z,8.10
2019-04-21T02:11:15.640Z,8.10
2019-04-21T02:13:53.423Z,8.10
2019-04-21T02:16:19.030Z,8.50
2019-04-21T02:18:52.993Z,9.00
2019-04-21T02:21:17.793Z,8.97
2019-04-21T02:24:00.527Z,8.23
2019-04-21T02:26:28.443Z,8.80
2019-04-21T02:29:00.115Z,10.47
2019-04-21T02:31:55.419Z,9.70
2019-04-21T02:34:06.497Z,9.53
2019-04-21T02:39:18.052Z,8.60
2019-04-21T02:41:50.697Z,9.57
2019-04-21T02:44:16.671Z,9.20
2019-04-21T02:46:50.396Z,8.50
2019-04-21T02:49:45.155Z,8.80
2019-04-21T02:51:58.554Z,9.97
2019-04-21T02:57:01.730Z,10.00
2019-04-21T02:59:33.101Z,10.07
2019-04-21T03:02:16.295Z,9.07
2019-04-21T03:07:25.465Z,8.83
2019-04-21T03:09:53.246Z,9.20
2019-04-21T03:12:22.650Z,8.67
2019-04-21T03:15:06.362Z,9.27
2019-04-21T03:17:46.080Z,8.90
2019-04-21T03:22:32.294Z,10.13
2019-04-21T03:25:25.306Z,10.23
2019-04-21T03:27:50.286Z,9.93
2019-04-21T03:30:29.285Z,10.20
2019-04-21T03:35:53.459Z,8.83
2019-04-21T03:37:49.364Z,9.53
2019-04-21T03:40:16.733Z,11.40
2019-04-21T03:42:52.999Z,9.97
2019-04-21T03:45:34.830Z,8.93
2019-04-21T03:47:53.572Z,9.30
2019-04-21T03:50:30.380Z,10.70
2019-04-21T03:53:09.683Z,9.17
2019-04-21T04:06:29.548Z,10.20
2019-04-21T04:09:26.449Z,8.90
2019-04-21T04:16:50.444Z,10.60
2019-04-21T04:19:35.738Z,10.07
2019-04-21T04:24:28.504Z,10.10
2019-04-21T04:27:02.371Z,10.10
2019-04-21T04:29:24.117Z,13.87
2019-04-21T04:31:50.926Z,9.50
2019-04-21T04:34:29.170Z,11.67
2019-04-21T04:37:12.379Z,9.90
2019-04-21T04:45:08.201Z,10.40
2019-04-21T04:47:24.371Z,9.47
2019-04-21T04:49:53.347Z,9.20
2019-04-21T04:52:32.563Z,10.40
2019-04-21T04:57:39.599Z,10.23
2019-04-21T05:00:15.564Z,9.73
2019-04-21T05:07:46.155Z,9.30
2019-04-21T05:10:27.585Z,10.10
2019-04-21T05:12:35.775Z,10.40
2019-04-21T05:15:16.191Z,9.70
2019-04-21T05:17:48.250Z,11.40
2019-04-21T05:22:42.258Z,9.27
2019-04-21T05:25:06.968Z,10.10
2019-04-21T05:27:40.997Z,8.77
2019-04-21T05:33:27.285Z,9.43
2019-04-21T05:36:10.904Z,10.13
2019-04-21T05:38:57.031Z,9.53
2019-04-21T05:41:23.206Z,9.33
2019-04-21T05:44:06.595Z,9.60
2019-04-21T05:46:35.565Z,9.63
2019-04-21T05:49:10.857Z,10.07
2019-04-21T05:51:55.619Z,9.77
2019-04-21T05:54:39.479Z,9.07
2019-04-21T05:57:05.767Z,10.00
2019-04-21T05:59:37.645Z,11.30
2019-04-21T06:02:19.147Z,10.70
2019-04-21T06:05:07.202Z,10.40
2019-04-21T06:07:18.848Z,10.47
2019-04-21T06:09:51.323Z,9.23
2019-04-21T06:12:14.646Z,11.03
2019-04-21T06:17:27.863Z,9.37
2019-04-21T06:19:57.294Z,10.83
2019-04-21T06:22:22.154Z,10.80
2019-04-21T06:25:21.075Z,10.60
2019-04-21T06:27:32.736Z,10.20
2019-04-21T06:30:10.618Z,9.30
2019-04-21T06:35:35.479Z,9.07
2019-04-21T06:37:49.125Z,9.40
2019-04-21T06:40:28.744Z,10.40
2019-04-21T06:43:11.044Z,9.60
2019-04-21T06:45:37.726Z,9.30
2019-04-21T06:48:04.241Z,11.20
2019-04-21T06:50:39.724Z,9.57
2019-04-21T06:53:06.463Z,9.73
2019-04-21T06:55:37.568Z,8.87
2019-04-21T06:58:10.108Z,9.27
2019-04-21T07:00:41.377Z,11.33
2019-04-21T07:05:49.032Z,10.97
2019-04-21T07:08:31.271Z,11.33
2019-04-21T07:10:52.033Z,10.23
2019-04-21T07:13:19.183Z,10.07
2019-04-21T07:15:53.288Z,10.00
2019-04-21T07:18:30.655Z,11.30
2019-04-21T07:20:53.158Z,10.50
2019-04-21T07:23:35.529Z,12.93
2019-04-21T07:25:57.902Z,11.70
2019-04-21T07:28:31.969Z,11.27
2019-04-21T07:31:12.988Z,12.50
2019-04-21T07:36:06.341Z,11.87
2019-04-21T07:38:33.126Z,12.43
2019-04-21T07:41:08.042Z,11.40
2019-04-21T07:43:34.361Z,11.00
2019-04-21T07:46:06.759Z,10.93
2019-04-21T07:48:49.526Z,10.70
2019-04-21T07:51:49.049Z,10.40
2019-04-21T07:54:17.180Z,11.30
2019-04-21T07:56:33.246Z,10.87
2019-04-21T07:59:21.039Z,11.23
2019-04-21T08:01:50.671Z,9.57
2019-04-21T08:04:42.662Z,9.77
2019-04-21T08:06:52.057Z,8.90
2019-04-21T08:09:27.517Z,9.37
2019-04-21T08:11:52.206Z,9.00
2019-04-21T08:14:31.767Z,9.33
2019-04-21T08:17:04.944Z,8.07
2019-04-21T08:19:32.519Z,7.23
2019-04-21T08:24:35.099Z,8.27
2019-04-21T08:27:11.059Z,8.80
2019-04-21T08:29:39.473Z,8.03
2019-04-21T08:32:39.133Z,7.50
2019-04-21T08:34:43.254Z,7.57
2019-04-21T08:37:12.623Z,8.17
2019-04-21T08:39:59.418Z,9.27
2019-04-21T08:42:21.596Z,8.17
2019-04-21T08:44:54.117Z,8.20
2019-04-21T08:47:25.572Z,7.10
2019-04-21T08:49:55.897Z,7.37
2019-04-21T08:52:37.699Z,7.63
2019-04-21T08:55:07.087Z,7.23
2019-04-21T08:57:56.794Z,6.80
2019-04-21T09:03:02.558Z,8.03
2019-04-21T09:05:31.258Z,6.10
2019-04-21T09:08:06.654Z,6.53
2019-04-21T09:10:35.637Z,5.87
2019-04-21T09:13:04.350Z,5.23
2019-04-21T09:15:34.964Z,5.17
2019-04-21T09:18:08.435Z,4.50
2019-04-21T09:20:47.358Z,4.77
2019-04-21T09:23:17.740Z,5.57
2019-04-21T09:25:55.414Z,4.80
2019-04-21T09:28:18.553Z,4.90
2019-04-21T09:30:39.529Z,5.43
2019-04-21T09:33:05.722Z,5.50
2019-04-21T09:35:42.847Z,5.20
2019-04-21T09:38:20.833Z,5.57
2019-04-21T09:40:45.461Z,4.87
2019-04-21T09:43:13.806Z,4.90
2019-04-21T09:45:45.229Z,5.23
2019-04-21T09:48:18.980Z,5.20
2019-04-21T09:50:48.067Z,4.63
2019-04-21T09:53:28.722Z,4.70
2019-04-21T09:55:55.919Z,4.47
2019-04-21T09:58:29.256Z,6.17
2019-04-21T10:01:06.164Z,5.30
2019-04-21T10:03:26.351Z,5.57
2019-04-21T10:05:56.440Z,4.10
2019-04-21T10:08:27.255Z,4.27
2019-04-21T10:11:03.261Z,4.00
2019-04-21T10:13:33.999Z,4.40
2019-04-21T10:16:34.859Z,5.20
2019-04-21T10:19:06.926Z,4.40
2019-04-21T10:21:38.082Z,4.47
2019-04-21T10:24:08.644Z,4.83
2019-04-21T10:26:38.652Z,4.33
2019-04-21T10:29:15.253Z,4.33
2019-04-21T10:31:40.780Z,5.30
2019-04-21T10:34:11.734Z,5.40
2019-04-21T10:36:42.869Z,4.33
2019-04-21T10:39:13.679Z,4.93
2019-04-21T10:41:43.958Z,4.90
2019-04-21T10:44:13.871Z,4.90
2019-04-21T10:46:46.618Z,4.53
2019-04-21T10:49:16.908Z,5.10
2019-04-21T10:51:46.986Z,6.27
2019-04-21T10:54:17.915Z,5.30
2019-04-21T10:56:49.134Z,4.13
2019-04-21T10:59:20.494Z,4.87
2019-04-21T11:01:50.711Z,4.93
2019-04-21T11:04:33.701Z,5.47
2019-04-21T11:07:10.772Z,5.43
2019-04-21T11:09:37.919Z,5.53
2019-04-21T11:12:08.294Z,4.53
2019-04-21T11:14:38.934Z,4.57
2019-04-21T11:17:10.176Z,4.60
2019-04-21T11:19:41.116Z,3.97
2019-04-21T11:22:11.114Z,4.37
2019-04-21T11:24:41.040Z,4.20
2019-04-21T11:27:11.022Z,4.80
2019-04-21T11:29:41.328Z,4.33
2019-04-21T11:32:12.684Z,5.90
2019-04-21T11:34:43.171Z,4.60
2019-04-21T11:37:14.862Z,4.87
2019-04-21T11:39:52.019Z,4.23
2019-04-21T11:42:23.726Z,4.30
2019-04-21T11:44:55.692Z,3.97
2019-04-21T11:47:32.208Z,4.70
2019-04-21T11:50:03.355Z,5.10
2019-04-21T11:52:34.754Z,4.60
2019-04-21T11:55:05.243Z,5.67
2019-04-21T11:57:40.136Z,4.90
2019-04-21T12:00:07.631Z,4.30
2019-04-21T12:02:39.501Z,4.33
2019-04-21T12:05:09.793Z,4.80
2019-04-21T12:07:40.911Z,5.03
2019-04-21T12:10:11.338Z,4.70
2019-04-21T12:12:41.491Z,4.40
2019-04-21T12:15:14.120Z,4.67
2019-04-21T12:17:44.036Z,5.23
2019-04-21T12:20:14.789Z,5.10
2019-04-21T12:22:45.349Z,5.53
2019-04-21T12:25:16.781Z,5.40
2019-04-21T12:27:47.835Z,5.37
2019-04-21T12:30:19.846Z,5.17
2019-04-21T12:32:58.112Z,4.53
2019-04-21T12:35:28.137Z,5.47
2019-04-21T12:37:58.494Z,4.40
2019-04-21T12:40:28.497Z,5.13
2019-04-21T12:42:58.821Z,4.50
2019-04-21T12:45:28.911Z,6.10
2019-04-21T12:48:00.050Z,4.70
2019-04-21T12:50:30.099Z,5.20
2019-04-21T12:53:00.196Z,4.47
2019-04-21T12:55:35.122Z,4.80
2019-04-21T12:58:03.405Z,4.93
2019-04-21T13:00:33.536Z,4.83
2019-04-21T13:03:03.688Z,5.27
2019-04-21T13:05:35.692Z,4.57
2019-04-21T13:08:07.077Z,5.17
2019-04-21T13:10:38.136Z,5.40
2019-04-21T13:13:08.209Z,4.83
2019-04-21T13:15:38.229Z,5.10
2019-04-21T13:18:08.337Z,4.40
2019-04-21T13:20:38.471Z,4.10
2019-04-21T13:23:08.451Z,5.20
2019-04-21T13:25:38.338Z,4.67
2019-04-21T13:28:08.462Z,5.80
2019-04-21T13:30:38.338Z,4.50
2019-04-21T13:33:09.155Z,5.50
2019-04-21T13:35:41.215Z,5.30
2019-04-21T13:38:20.015Z,5.40
2019-04-21T13:41:22.794Z,5.57
2019-04-21T13:43:41.183Z,6.37
2019-04-21T13:46:12.194Z,5.20
2019-04-21T13:48:42.592Z,5.00
2019-04-21T13:51:13.321Z,5.00
2019-04-21T13:53:45.861Z,5.07
2019-04-21T13:56:16.275Z,5.90
2019-04-21T13:58:46.411Z,5.50
2019-04-21T14:01:17.923Z,5.07
2019-04-21T14:03:49.086Z,5.37
2019-04-21T14:06:20.399Z,5.17
2019-04-21T14:08:52.398Z,5.23
2019-04-21T14:11:23.056Z,5.07
2019-04-21T14:13:54.394Z,6.47
2019-04-21T14:16:24.531Z,5.20
2019-04-21T14:18:55.195Z,5.03
2019-04-21T14:21:25.126Z,5.37
2019-04-21T14:23:56.385Z,4.77
2019-04-21T14:26:26.936Z,5.33
2019-04-21T14:28:56.922Z,4.80
2019-04-21T14:31:28.335Z,5.13
2019-04-21T14:33:59.664Z,5.53
2019-04-21T14:36:30.721Z,4.77
2019-04-21T14:39:02.837Z,5.13
2019-04-21T14:41:32.899Z,4.60
2019-04-21T14:44:02.966Z,4.50
2019-04-21T14:47:11.225Z,4.93
2019-04-21T14:50:00.257Z,5.30
2019-04-21T14:52:35.050Z,5.20
2019-04-21T14:55:16.641Z,5.07
2019-04-21T14:57:47.386Z,4.83
2019-04-21T15:00:21.069Z,4.60
2019-04-21T15:02:51.826Z,5.33
2019-04-21T15:05:21.846Z,4.87
2019-04-21T15:07:53.063Z,5.17
2019-04-21T15:10:26.097Z,4.87
2019-04-21T15:12:56.123Z,5.30
2019-04-21T15:15:26.190Z,4.97
2019-04-21T15:17:56.180Z,4.90
2019-04-21T15:20:26.894Z,5.97
2019-04-21T15:22:57.472Z,4.37
2019-04-21T15:25:27.936Z,4.43
2019-04-21T15:27:59.070Z,4.87
2019-04-21T15:30:29.080Z,4.70
2019-04-21T15:33:00.404Z,6.33
2019-04-21T15:35:31.035Z,5.37
2019-04-21T15:38:02.055Z,4.57
2019-04-21T15:40:41.884Z,4.80
2019-04-21T15:43:04.503Z,4.43
2019-04-21T15:45:34.961Z,4.80
2019-04-21T15:48:05.447Z,6.70
2019-04-21T15:50:35.749Z,5.73
2019-04-21T15:53:07.714Z,5.33
2019-04-21T15:55:46.955Z,5.20
2019-04-21T15:58:24.770Z,5.30
2019-04-21T16:01:02.784Z,5.40
2019-04-21T16:03:34.468Z,4.50
2019-04-21T16:06:05.641Z,4.90
2019-04-21T16:08:37.404Z,4.97
2019-04-21T16:11:10.830Z,5.97
2019-04-21T16:13:39.670Z,5.30
2019-04-21T16:16:10.514Z,5.53
2019-04-21T16:18:42.503Z,5.10
2019-04-21T16:21:13.847Z,4.83
2019-04-21T16:23:44.505Z,4.90
2019-04-21T16:26:14.983Z,4.20
2019-04-21T16:28:45.263Z,4.50
2019-04-21T16:31:16.333Z,5.20
2019-04-21T16:33:47.186Z,5.03
2019-04-21T16:36:18.334Z,5.00
2019-04-21T16:38:49.405Z,4.77
2019-04-21T16:41:20.313Z,5.67
2019-04-21T16:43:51.390Z,5.87
2019-04-21T16:46:21.299Z,5.10
2019-04-21T16:48:51.652Z,5.60
2019-04-21T16:51:22.227Z,4.10
2019-04-21T16:53:57.784Z,5.30
2019-04-21T16:56:35.878Z,5.13
2019-04-21T16:59:18.940Z,5.70
2019-04-21T17:01:48.992Z,4.37
2019-04-21T17:04:20.275Z,4.77
2019-04-21T17:06:51.265Z,3.67
2019-04-21T17:09:22.985Z,4.57
2019-04-21T17:11:58.046Z,4.57
2019-04-21T17:14:43.773Z,5.10
2019-04-21T17:17:17.856Z,6.43
2019-04-21T17:19:34.750Z,5.73
2019-04-21T17:22:01.756Z,6.90
2019-04-21T17:24:32.547Z,6.37
2019-04-21T17:27:02.947Z,5.63
2019-04-21T17:29:34.546Z,4.33
2019-04-21T17:32:07.693Z,5.00
2019-04-21T17:34:37.963Z,5.40
2019-04-21T17:37:08.827Z,4.50
2019-04-21T17:39:38.937Z,4.03
2019-04-21T17:42:18.370Z,4.63
2019-04-21T17:44:41.314Z,5.10
2019-04-21T17:47:22.505Z,4.23
2019-04-21T17:49:48.785Z,4.33
2019-04-21T17:52:42.976Z,5.60
2019-04-21T17:55:22.985Z,4.13
2019-04-21T17:58:05.115Z,4.90
2019-04-21T18:01:05.564Z,4.00
2019-04-21T18:03:28.131Z,4.53
2019-04-21T18:05:48.513Z,4.93
2019-04-21T18:08:23.462Z,4.40
2019-04-21T18:10:48.085Z,5.00
2019-04-21T18:13:08.591Z,4.73
2019-04-21T18:15:51.965Z,5.17
2019-04-21T18:18:08.432Z,4.80
2019-04-21T18:20:41.825Z,4.73
2019-04-21T18:23:35.139Z,4.87
2019-04-21T18:26:01.678Z,4.03
2019-04-21T18:28:26.357Z,4.80
2019-04-21T18:31:02.372Z,5.20
2019-04-21T18:33:37.053Z,4.83
2019-04-21T18:36:13.509Z,5.20
2019-04-21T18:39:19.768Z,4.83
2019-04-21T18:41:36.600Z,4.27
2019-04-21T18:44:33.242Z,3.90
2019-04-21T18:47:31.957Z,3.97
2019-04-21T18:49:43.709Z,8.00
2019-04-21T18:52:40.594Z,5.37
2019-04-21T18:55:09.431Z,4.30
2019-04-21T18:57:38.430Z,4.43
2019-04-21T18:59:59.567Z,5.67
2019-04-21T19:02:38.435Z,4.80
2019-04-21T19:05:09.905Z,4.90
2019-04-21T19:07:59.772Z,5.33
2019-04-21T19:10:33.181Z,4.97
2019-04-21T19:15:28.117Z,7.33
2019-04-21T19:20:34.881Z,5.50
2019-04-21T19:23:08.448Z,5.90
2019-04-21T19:25:41.261Z,5.10
2019-04-21T19:28:06.111Z,5.10
2019-04-21T19:30:53.809Z,5.60
2019-04-21T19:33:14.507Z,6.27
2019-04-21T19:35:32.223Z,4.77
2019-04-21T19:38:07.008Z,5.63
2019-04-21T19:40:51.870Z,5.53
2019-04-21T19:43:29.415Z,4.67
2019-04-21T19:45:56.337Z,4.67
2019-04-21T19:48:26.063Z,4.80
2019-04-21T19:51:01.317Z,5.40
2019-04-21T19:53:32.918Z,4.70
2019-04-21T19:55:45.746Z,5.13
2019-04-21T19:58:19.474Z,5.50
2019-04-21T20:00:50.842Z,4.87
2019-04-21T20:03:20.937Z,5.37
2019-04-21T20:06:00.393Z,4.60
2019-04-21T20:08:36.156Z,5.30
2019-04-21T20:11:18.162Z,5.53
2019-04-21T20:14:18.385Z,5.57
2019-04-21T20:16:19.182Z,5.70
2019-04-21T20:18:37.895Z,4.80
2019-04-21T20:21:01.933Z,4.43
2019-04-21T20:23:35.428Z,4.77
2019-04-21T20:26:06.213Z,4.30
2019-04-21T20:28:48.969Z,6.63
2019-04-21T20:31:23.608Z,5.10
2019-04-21T20:33:59.614Z,12.63
2019-04-21T20:36:33.111Z,9.53
2019-04-21T20:38:52.521Z,6.00
2019-04-21T20:41:27.008Z,4.30
2019-04-21T20:44:09.899Z,4.63
2019-04-21T20:46:36.731Z,7.40
2019-04-21T20:49:01.708Z,7.17
2019-04-21T20:51:37.593Z,4.97
2019-04-21T20:54:08.685Z,6.63
2019-04-21T20:56:43.899Z,5.03
2019-04-21T20:59:11.977Z,5.47
2019-04-21T21:01:47.781Z,5.90
2019-04-21T21:04:13.808Z,4.87
2019-04-21T21:06:47.203Z,4.23
2019-04-21T21:09:18.317Z,5.23
2019-04-21T21:12:11.457Z,5.63
2019-04-21T21:14:24.933Z,4.50
2019-04-21T21:17:03.269Z,4.47
2019-04-21T21:19:34.814Z,5.83
2019-04-21T21:21:57.609Z,5.70
2019-04-21T21:24:36.366Z,8.13
2019-04-21T21:27:09.122Z,6.40
2019-04-21T21:29:33.505Z,5.97
2019-04-21T21:32:16.880Z,5.50
2019-04-21T21:34:47.267Z,5.03
2019-04-21T21:37:21.901Z,4.50
2019-04-21T21:39:53.682Z,4.90
2019-04-21T21:42:02.818Z,4.67
2019-04-21T21:44:33.805Z,4.07
2019-04-21T21:47:17.242Z,4.10
2019-04-21T21:49:48.086Z,4.20
2019-04-21T21:52:16.878Z,4.20
2019-04-21T21:54:38.073Z,4.67
2019-04-21T21:57:08.307Z,5.00
2019-04-21T21:59:40.057Z,4.60
2019-04-21T22:02:17.222Z,4.00
2019-04-21T22:04:51.092Z,3.83
2019-04-21T22:07:17.830Z,4.43
2019-04-21T22:09:48.300Z,4.53
2019-04-21T22:12:18.360Z,4.87
2019-04-21T22:14:52.052Z,4.97
2019-04-21T22:17:36.905Z,3.97
2019-04-21T22:20:17.014Z,4.20
2019-04-21T22:22:39.016Z,3.90
2019-04-21T22:25:06.940Z,4.17
2019-04-21T22:27:27.835Z,5.07
2019-04-21T22:30:02.961Z,3.80
2019-04-21T22:32:31.468Z,5.40
2019-04-21T22:35:06.927Z,4.30
2019-04-21T22:37:45.094Z,4.10
2019-04-21T22:40:16.856Z,5.17
2019-04-21T22:42:47.356Z,4.50
2019-04-21T22:45:11.292Z,4.20
2019-04-21T22:47:42.876Z,4.33
2019-04-21T22:50:28.975Z,3.97
2019-04-21T22:53:04.146Z,3.83
2019-04-21T22:55:35.015Z,6.47
2019-04-21T22:58:03.894Z,9.33
2019-04-21T23:00:41.013Z,5.97
2019-04-21T23:03:12.994Z,6.23
2019-04-21T23:05:42.701Z,5.00
2019-04-21T23:08:11.050Z,4.40
2019-04-21T23:10:48.290Z,4.40
2019-04-21T23:13:19.883Z,3.77
2019-04-21T23:15:51.759Z,4.10
2019-04-21T23:18:37.419Z,20.40
2019-04-21T23:21:09.121Z,6.90
2019-04-21T23:23:48.330Z,6.17
2019-04-21T23:26:15.945Z,5.07
2019-04-21T23:28:49.070Z,5.20
2019-04-21T23:31:18.675Z,4.50
2019-04-21T23:33:31.443Z,10.37
2019-04-21T23:36:11.301Z,10.43
2019-04-21T23:38:41.702Z,6.67
2019-04-21T23:41:09.197Z,6.67
2019-04-21T23:43:38.928Z,5.90
2019-04-21T23:46:19.829Z,5.00
2019-04-21T23:49:02.420Z,5.77
2019-04-21T23:51:25.888Z,5.03
2019-04-21T23:53:45.161Z,4.47
2019-04-21T23:56:21.801Z,10.07
2019-04-21T23:58:54.717Z,4.30
